createdAt,value
2018-12-03T00:00:50.194Z,137.20
2018-12-03T00:03:21.365Z,136.30
2018-12-03T00:05:52.008Z,138.03
2018-12-03T00:08:22.557Z,137.47
2018-12-03T00:10:53.008Z,132.73
2018-12-03T00:13:23.550Z,133.90
2018-12-03T00:15:53.979Z,131.37
2018-12-03T00:18:24.419Z,128.13
2018-12-03T00:20:55.150Z,131.70
2018-12-03T00:23:25.522Z,129.60
2018-12-03T00:25:56.065Z,127.30
2018-12-03T00:28:26.602Z,127.00
2018-12-03T00:30:57.050Z,125.63
2018-12-03T00:33:27.701Z,125.37
2018-12-03T00:35:58.258Z,124.23
2018-12-03T00:38:28.776Z,122.77
2018-12-03T00:40:59.345Z,122.10
2018-12-03T00:43:29.888Z,121.97
2018-12-03T00:46:00.239Z,121.50
2018-12-03T00:48:30.657Z,122.03
2018-12-03T00:51:01.024Z,123.43
2018-12-03T00:53:31.397Z,116.97
2018-12-03T00:56:01.962Z,119.47
2018-12-03T00:58:32.630Z,118.77
2018-12-03T01:01:03.102Z,118.97
2018-12-03T01:03:33.538Z,119.90
2018-12-03T01:06:03.988Z,120.20
2018-12-03T01:08:34.427Z,121.77
2018-12-03T01:11:04.812Z,120.93
2018-12-03T01:13:35.309Z,126.23
2018-12-03T01:16:05.920Z,122.90
2018-12-03T01:18:36.294Z,122.47
2018-12-03T01:21:07.017Z,120.10
2018-12-03T01:23:37.548Z,121.57
2018-12-03T01:26:08.445Z,124.30
2018-12-03T01:28:39.073Z,118.47
2018-12-03T01:31:09.582Z,121.13
2018-12-03T01:33:40.293Z,122.57
2018-12-03T01:36:10.677Z,122.90
2018-12-03T01:38:41.166Z,120.80
2018-12-03T01:41:11.599Z,122.10
2018-12-03T01:43:42.024Z,120.07
2018-12-03T01:46:12.487Z,121.00
2018-12-03T01:48:43.008Z,123.37
2018-12-03T01:51:13.453Z,122.47
2018-12-03T01:53:44.034Z,124.23
2018-12-03T01:56:14.489Z,126.17
2018-12-03T01:58:44.860Z,123.73
2018-12-03T02:01:15.466Z,124.83
2018-12-03T02:03:45.999Z,126.03
2018-12-03T02:06:16.695Z,125.83
2018-12-03T02:08:47.051Z,122.40
2018-12-03T02:11:17.622Z,122.40
2018-12-03T02:17:07.652Z,122.00
2018-12-03T02:19:38.189Z,121.30
2018-12-03T02:22:11.019Z,121.17
2018-12-03T02:24:41.516Z,119.70
2018-12-03T02:27:11.976Z,122.17
2018-12-03T02:29:42.325Z,121.70
2018-12-03T02:32:12.642Z,121.07
2018-12-03T02:34:44.768Z,123.93
2018-12-03T02:37:15.293Z,124.57
2018-12-03T02:39:45.685Z,126.53
2018-12-03T02:42:16.150Z,124.00
2018-12-03T02:44:46.728Z,124.67
2018-12-03T02:47:17.351Z,128.93
2018-12-03T02:49:47.847Z,126.70
2018-12-03T02:52:18.358Z,126.83
2018-12-03T02:54:48.772Z,128.60
2018-12-03T02:57:19.256Z,130.57
2018-12-03T02:59:49.657Z,132.00
2018-12-03T03:02:20.152Z,134.37
2018-12-03T03:04:50.542Z,131.10
2018-12-03T03:07:21.031Z,131.30
2018-12-03T03:09:51.424Z,133.37
2018-12-03T03:12:21.997Z,129.67
2018-12-03T03:14:52.373Z,131.67
2018-12-03T03:17:23.819Z,130.83
2018-12-03T03:19:54.268Z,135.03
2018-12-03T03:22:24.796Z,132.10
2018-12-03T03:24:55.208Z,133.43
2018-12-03T03:27:25.579Z,133.07
2018-12-03T03:29:56.152Z,131.00
2018-12-03T03:32:26.590Z,131.97
2018-12-03T03:34:57.321Z,132.43
2018-12-03T03:37:27.860Z,132.87
2018-12-03T03:39:58.285Z,132.47
2018-12-03T03:42:28.758Z,133.47
2018-12-03T03:44:59.421Z,132.90
2018-12-03T03:47:29.726Z,132.80
2018-12-03T03:50:00.172Z,131.20
2018-12-03T03:52:30.716Z,131.53
2018-12-03T03:55:01.199Z,133.93
2018-12-03T03:57:31.533Z,131.10
2018-12-03T04:00:02.170Z,125.63
2018-12-03T04:02:32.694Z,124.70
2018-12-03T04:05:03.179Z,123.23
2018-12-03T04:07:33.667Z,121.77
2018-12-03T04:10:04.148Z,121.43
2018-12-03T04:12:34.791Z,121.27
2018-12-03T04:15:05.451Z,120.93
2018-12-03T04:17:35.752Z,121.57
2018-12-03T04:20:09.221Z,120.07
2018-12-03T04:22:39.629Z,117.17
2018-12-03T04:25:11.111Z,116.77
2018-12-03T04:27:41.534Z,117.37
2018-12-03T04:30:30.963Z,120.80
2018-12-03T04:33:01.382Z,118.13
2018-12-03T04:35:31.825Z,117.10
2018-12-03T04:38:02.361Z,119.47
2018-12-03T04:40:32.685Z,125.43
2018-12-03T04:43:03.149Z,122.83
2018-12-03T04:45:33.685Z,124.70
2018-12-03T04:48:04.316Z,121.67
2018-12-03T04:50:34.713Z,126.10
2018-12-03T04:53:05.137Z,134.07
2018-12-03T04:55:35.426Z,124.50
2018-12-03T04:58:05.860Z,120.87
2018-12-03T05:00:36.413Z,123.77
2018-12-03T05:03:07.017Z,122.63
2018-12-03T05:05:37.513Z,125.23
2018-12-03T05:08:08.509Z,124.10
2018-12-03T05:10:40.082Z,126.20
2018-12-03T05:13:10.527Z,124.70
2018-12-03T05:15:40.853Z,127.10
2018-12-03T05:18:11.361Z,133.73
2018-12-03T05:20:41.756Z,131.20
2018-12-03T05:23:12.151Z,127.33
2018-12-03T05:25:42.544Z,131.67
2018-12-03T05:28:12.841Z,131.97
2018-12-03T05:30:43.310Z,136.27
2018-12-03T05:33:13.867Z,134.47
2018-12-03T05:35:44.407Z,132.00
2018-12-03T05:38:15.058Z,133.03
2018-12-03T05:40:45.503Z,138.47
2018-12-03T05:43:15.943Z,134.40
2018-12-03T05:45:46.469Z,135.23
2018-12-03T05:48:16.918Z,137.33
2018-12-03T05:50:47.345Z,137.77
2018-12-03T05:53:17.711Z,138.70
2018-12-03T05:55:48.151Z,138.57
2018-12-03T05:58:18.513Z,135.90
2018-12-03T06:00:49.040Z,137.63
2018-12-03T06:03:19.578Z,142.30
2018-12-03T06:05:49.993Z,138.17
2018-12-03T06:08:20.466Z,136.20
2018-12-03T06:10:51.017Z,139.17
2018-12-03T06:13:21.440Z,139.70
2018-12-03T06:15:51.811Z,139.90
2018-12-03T06:18:22.259Z,143.33
2018-12-03T06:20:52.969Z,145.07
2018-12-03T06:23:23.564Z,145.97
2018-12-03T06:25:53.998Z,147.60
2018-12-03T06:28:24.493Z,152.10
2018-12-03T06:30:55.066Z,147.90
2018-12-03T06:33:25.357Z,146.80
2018-12-03T06:35:55.850Z,148.93
2018-12-03T06:38:26.492Z,147.73
2018-12-03T06:40:57.160Z,144.67
2018-12-03T06:43:27.680Z,144.57
2018-12-03T06:45:58.267Z,140.97
2018-12-03T06:48:28.698Z,141.33
2018-12-03T06:50:59.230Z,139.23
2018-12-03T06:53:29.694Z,138.60
2018-12-03T06:56:00.243Z,135.23
2018-12-03T06:58:30.693Z,133.17
2018-12-03T07:01:01.107Z,136.17
2018-12-03T07:03:31.559Z,134.30
2018-12-03T07:06:01.949Z,130.90
2018-12-03T07:08:32.839Z,129.43
2018-12-03T07:11:03.299Z,129.10
2018-12-03T07:13:35.135Z,125.13
2018-12-03T07:16:05.717Z,127.73
2018-12-03T07:18:36.445Z,121.67
2018-12-03T07:21:07.321Z,124.30
2018-12-03T07:23:37.670Z,126.97
2018-12-03T07:26:08.323Z,122.00
2018-12-03T07:28:38.759Z,118.87
2018-12-03T07:31:09.315Z,120.97
2018-12-03T07:33:39.690Z,118.73
2018-12-03T07:36:10.073Z,118.40
2018-12-03T07:38:40.563Z,116.23
2018-12-03T07:41:11.057Z,112.43
2018-12-03T07:43:41.509Z,114.47
2018-12-03T07:46:11.992Z,117.60
2018-12-03T07:48:42.527Z,113.23
2018-12-03T07:51:13.045Z,113.90
2018-12-03T07:53:43.488Z,113.17
2018-12-03T07:56:13.846Z,112.27
2018-12-03T07:58:44.373Z,109.57
2018-12-03T08:01:15.015Z,110.63
2018-12-03T08:03:45.468Z,109.47
2018-12-03T08:06:15.880Z,106.17
2018-12-03T08:08:46.361Z,110.30
2018-12-03T08:11:16.893Z,104.80
2018-12-03T08:13:47.406Z,110.13
2018-12-03T08:16:17.796Z,107.43
2018-12-03T08:18:48.106Z,106.57
2018-12-03T08:21:18.561Z,103.37
2018-12-03T08:24:21.369Z,104.53
2018-12-03T08:26:51.876Z,100.90
2018-12-03T08:29:22.445Z,103.27
2018-12-03T08:31:52.799Z,107.93
2018-12-03T08:34:23.199Z,103.97
2018-12-03T08:36:53.745Z,105.90
2018-12-03T08:39:24.300Z,106.37
2018-12-03T08:41:54.838Z,110.97
2018-12-03T08:44:30.353Z,114.23
2018-12-03T08:47:06.817Z,114.13
2018-12-03T08:49:37.426Z,114.40
2018-12-03T08:52:09.898Z,115.73
2018-12-03T08:54:40.519Z,114.67
2018-12-03T08:57:10.879Z,115.53
2018-12-03T08:59:41.362Z,112.80
2018-12-03T09:02:11.927Z,113.00
2018-12-03T09:04:42.483Z,113.87
2018-12-03T09:07:13.028Z,109.37
2018-12-03T09:09:43.565Z,113.63
2018-12-03T09:12:14.034Z,119.03
2018-12-03T09:14:44.509Z,112.60
2018-12-03T09:17:15.104Z,109.80
2018-12-03T09:19:50.061Z,110.53
2018-12-03T09:22:20.601Z,112.27
2018-12-03T09:24:51.037Z,108.70
2018-12-03T09:27:21.589Z,109.43
2018-12-03T09:29:56.377Z,106.40
2018-12-03T09:32:26.784Z,109.17
2018-12-03T09:34:57.143Z,109.07
2018-12-03T09:37:28.446Z,105.73
2018-12-03T09:39:58.887Z,104.80
2018-12-03T09:42:35.885Z,104.97
2018-12-03T09:45:16.930Z,104.97
2018-12-03T09:47:47.681Z,106.77
2018-12-03T09:50:22.281Z,105.80
2018-12-03T09:52:52.925Z,107.10
2018-12-03T09:55:30.114Z,107.53
2018-12-03T09:58:07.969Z,107.23
2018-12-03T10:00:38.590Z,115.13
2018-12-03T10:03:36.734Z,114.47
2018-12-03T10:06:15.953Z,114.33
2018-12-03T10:08:46.542Z,120.33
2018-12-03T10:11:17.053Z,114.20
2018-12-03T10:13:47.727Z,115.50
2018-12-03T10:16:18.294Z,115.67
2018-12-03T10:18:51.870Z,111.97
2018-12-03T10:21:22.423Z,116.87
2018-12-03T10:23:52.914Z,116.73
2018-12-03T10:26:23.709Z,118.03
2018-12-03T10:28:54.155Z,120.10
2018-12-03T10:31:24.727Z,116.73
2018-12-03T10:33:55.306Z,122.63
2018-12-03T10:36:25.716Z,125.33
2018-12-03T10:38:56.206Z,128.43
2018-12-03T10:41:31.403Z,124.67
2018-12-03T10:44:03.399Z,126.87
2018-12-03T10:46:33.809Z,129.77
2018-12-03T10:49:09.795Z,134.13
2018-12-03T10:51:40.344Z,137.57
2018-12-03T10:54:10.872Z,139.87
2018-12-03T10:56:41.327Z,139.83
2018-12-03T10:59:11.894Z,140.07
2018-12-03T11:02:10.148Z,144.60
2018-12-03T11:04:43.761Z,149.03
2018-12-03T11:07:15.498Z,151.80
2018-12-03T11:09:45.911Z,154.73
2018-12-03T11:12:16.359Z,156.57
2018-12-03T11:14:46.872Z,155.07
2018-12-03T11:17:17.447Z,153.43
2018-12-03T11:19:50.832Z,158.73
2018-12-03T11:22:24.733Z,154.90
2018-12-03T11:24:55.204Z,155.53
2018-12-03T11:27:25.851Z,157.07
2018-12-03T11:29:56.440Z,158.80
2018-12-03T11:32:26.965Z,155.57
2018-12-03T11:34:57.426Z,154.87
2018-12-03T11:37:27.810Z,153.47
2018-12-03T11:40:07.658Z,151.43
2018-12-03T11:42:39.272Z,153.90
2018-12-03T11:45:11.561Z,150.43
2018-12-03T11:47:42.169Z,152.53
2018-12-03T11:50:13.861Z,149.03
2018-12-03T11:52:44.429Z,152.37
2018-12-03T11:55:16.094Z,152.20
2018-12-03T11:57:46.458Z,147.60
2018-12-03T12:00:16.786Z,149.47
2018-12-03T12:02:47.207Z,150.10
2018-12-03T12:05:19.546Z,148.37
2018-12-03T12:07:50.167Z,150.10
2018-12-03T12:10:20.617Z,148.50
2018-12-03T12:12:51.159Z,148.27
2018-12-03T12:15:21.778Z,147.03
2018-12-03T12:17:52.302Z,147.73
2018-12-03T12:20:22.902Z,143.43
2018-12-03T12:22:53.429Z,142.27
2018-12-03T12:25:23.910Z,142.27
2018-12-03T12:27:56.526Z,139.13
2018-12-03T12:30:27.128Z,145.00
2018-12-03T12:32:57.570Z,147.40
2018-12-03T12:35:27.966Z,144.83
2018-12-03T12:37:58.442Z,149.47
2018-12-03T12:40:29.006Z,149.97
2018-12-03T12:42:59.524Z,147.40
2018-12-03T12:45:38.943Z,144.53
2018-12-03T12:48:08.628Z,145.67
2018-12-03T12:50:39.027Z,139.03
2018-12-03T12:53:09.480Z,144.73
2018-12-03T12:55:40.012Z,142.13
2018-12-03T12:58:10.540Z,141.93
2018-12-03T13:00:40.925Z,141.97
2018-12-03T13:03:11.447Z,141.30
2018-12-03T13:05:42.396Z,142.77
2018-12-03T13:08:12.949Z,141.50
2018-12-03T13:10:43.391Z,137.20
2018-12-03T13:13:13.812Z,139.33
2018-12-03T13:15:44.210Z,134.17
2018-12-03T13:18:14.665Z,135.07
2018-12-03T13:20:45.066Z,135.23
2018-12-03T13:23:15.481Z,130.67
2018-12-03T13:25:45.984Z,133.63
2018-12-03T13:28:16.424Z,130.07
2018-12-03T13:30:46.717Z,133.00
2018-12-03T13:33:17.414Z,126.77
2018-12-03T13:35:47.773Z,130.27
2018-12-03T13:38:18.196Z,127.80
2018-12-03T13:40:48.739Z,127.30
2018-12-03T13:43:19.101Z,124.90
2018-12-03T13:45:49.420Z,121.60
2018-12-03T13:48:19.953Z,124.87
2018-12-03T13:50:50.377Z,121.90
2018-12-03T13:53:20.985Z,122.13
2018-12-03T13:55:51.609Z,122.40
2018-12-03T13:58:22.128Z,123.33
2018-12-03T14:00:52.504Z,126.40
2018-12-03T14:03:34.030Z,120.00
2018-12-03T14:06:27.961Z,120.87
2018-12-03T14:09:11.278Z,119.23
2018-12-03T14:12:30.080Z,117.53
2018-12-03T14:15:36.931Z,119.87
2018-12-03T14:18:23.273Z,121.50
2018-12-03T14:20:55.300Z,122.30
2018-12-03T14:23:45.008Z,123.03
2018-12-03T14:26:15.411Z,122.20
2018-12-03T14:28:46.037Z,122.43
2018-12-03T14:31:16.604Z,122.60
2018-12-03T14:33:47.169Z,123.30
2018-12-03T14:36:17.639Z,123.60
2018-12-03T14:38:48.080Z,120.13
2018-12-03T14:41:18.492Z,125.70
2018-12-03T14:43:48.953Z,122.83
2018-12-03T14:46:19.600Z,126.43
2018-12-03T14:48:50.043Z,128.17
2018-12-03T14:51:20.809Z,131.43
2018-12-03T14:53:51.254Z,127.60
2018-12-03T14:56:21.744Z,130.87
2018-12-03T14:58:52.226Z,131.37
2018-12-03T15:01:22.697Z,131.33
2018-12-03T15:03:53.033Z,133.50
2018-12-03T15:06:23.659Z,134.37
2018-12-03T15:08:54.189Z,140.37
2018-12-03T15:11:24.721Z,138.77
2018-12-03T15:13:55.301Z,136.17
2018-12-03T15:16:25.905Z,135.87
2018-12-03T15:18:56.259Z,135.47
2018-12-03T15:21:26.839Z,135.63
2018-12-03T15:23:57.412Z,139.47
2018-12-03T15:26:28.070Z,137.80
2018-12-03T15:28:58.704Z,134.93
2018-12-03T15:31:29.239Z,141.33
2018-12-03T15:33:59.656Z,139.90
2018-12-03T15:36:29.991Z,135.63
2018-12-03T15:39:00.538Z,139.30
2018-12-03T15:41:31.178Z,136.37
2018-12-03T15:44:01.719Z,137.37
2018-12-03T15:46:32.269Z,134.20
2018-12-03T15:49:03.680Z,129.00
2018-12-03T15:51:34.114Z,131.13
2018-12-03T15:54:04.636Z,125.33
2018-12-03T15:56:34.974Z,125.60
2018-12-03T15:59:05.538Z,123.33
2018-12-03T16:01:36.058Z,122.60
2018-12-03T16:04:06.450Z,118.53
2018-12-03T16:06:36.955Z,119.90
2018-12-03T16:09:10.304Z,121.57
2018-12-03T16:11:41.117Z,119.50
2018-12-03T16:14:11.770Z,120.00
2018-12-03T16:16:42.224Z,122.40
2018-12-03T16:19:12.818Z,121.97
2018-12-03T16:21:43.404Z,123.57
2018-12-03T16:24:13.930Z,125.60
2018-12-03T16:26:44.381Z,123.13
2018-12-03T16:29:14.849Z,127.53
2018-12-03T16:31:45.308Z,122.77
2018-12-03T16:34:15.743Z,134.00
2018-12-03T16:36:46.171Z,124.90
2018-12-03T16:39:16.604Z,126.57
2018-12-03T16:41:47.136Z,126.20
2018-12-03T16:44:17.697Z,126.77
2018-12-03T16:46:48.151Z,127.43
2018-12-03T16:49:18.583Z,126.70
2018-12-03T16:51:49.145Z,124.33
2018-12-03T16:54:19.577Z,120.60
2018-12-03T16:56:50.106Z,118.90
2018-12-03T16:59:20.773Z,118.57
2018-12-03T17:01:51.117Z,117.90
2018-12-03T17:04:21.575Z,115.03
2018-12-03T17:06:52.207Z,113.37
2018-12-03T17:09:22.756Z,116.87
2018-12-03T17:11:53.340Z,112.13
2018-12-03T17:14:23.936Z,114.60
2018-12-03T17:16:54.467Z,111.63
2018-12-03T17:19:25.035Z,113.70
2018-12-03T17:22:26.410Z,112.77
2018-12-03T17:24:56.814Z,108.87
2018-12-03T17:27:27.380Z,116.43
2018-12-03T17:29:57.790Z,110.40
2018-12-03T17:32:28.370Z,108.77
2018-12-03T17:34:58.878Z,108.90
2018-12-03T17:37:29.356Z,106.43
2018-12-03T17:39:59.905Z,106.67
2018-12-03T17:42:30.440Z,107.27
2018-12-03T17:45:01.029Z,107.23
2018-12-03T17:47:31.745Z,104.50
2018-12-03T17:50:02.296Z,109.87
2018-12-03T17:52:32.855Z,105.67
2018-12-03T17:55:03.293Z,101.13
2018-12-03T17:57:33.936Z,104.63
2018-12-03T18:00:04.677Z,100.37
2018-12-03T18:02:35.316Z,102.97
2018-12-03T18:05:05.961Z,100.00
2018-12-03T18:07:36.627Z,101.10
2018-12-03T18:10:09.427Z,106.47
2018-12-03T18:12:39.870Z,134.23
2018-12-03T18:15:11.210Z,148.83
2018-12-03T18:17:41.795Z,104.07
2018-12-03T18:20:12.599Z,99.73
2018-12-03T18:22:43.070Z,102.33
2018-12-03T18:25:13.704Z,102.30
2018-12-03T18:27:44.171Z,100.00
2018-12-03T18:30:14.685Z,105.57
2018-12-03T18:32:45.245Z,102.77
2018-12-03T18:35:15.561Z,106.00
2018-12-03T18:37:46.164Z,105.47
2018-12-03T18:40:16.595Z,106.53
2018-12-03T18:42:47.137Z,102.87
2018-12-03T18:45:17.676Z,109.70
2018-12-03T18:47:48.225Z,103.03
2018-12-03T18:50:48.168Z,105.70
2018-12-03T18:53:24.148Z,104.23
2018-12-03T18:55:54.873Z,110.60
2018-12-03T18:58:38.525Z,108.63
2018-12-03T19:01:09.054Z,115.53
2018-12-03T19:03:39.475Z,114.50
2018-12-03T19:06:10.858Z,115.50
2018-12-03T19:08:41.404Z,116.67
2018-12-03T19:11:11.853Z,118.20
2018-12-03T19:13:42.395Z,119.67
2018-12-03T19:16:12.795Z,116.13
2018-12-03T19:18:43.281Z,116.50
2018-12-03T19:21:13.931Z,117.43
2018-12-03T19:23:44.286Z,123.03
2018-12-03T19:26:14.710Z,121.27
2018-12-03T19:28:45.170Z,121.93
2018-12-03T19:31:15.558Z,123.40
2018-12-03T19:33:46.157Z,121.03
2018-12-03T19:36:16.609Z,120.87
2018-12-03T19:38:47.331Z,120.60
2018-12-03T19:41:17.873Z,125.67
2018-12-03T19:43:48.422Z,126.07
2018-12-03T19:46:18.992Z,126.27
2018-12-03T19:48:49.630Z,124.97
2018-12-03T19:51:20.156Z,128.30
2018-12-03T19:53:50.882Z,126.30
2018-12-03T19:56:21.674Z,122.50
2018-12-03T19:58:53.741Z,131.07
2018-12-03T20:01:24.220Z,129.53
2018-12-03T20:03:54.650Z,132.47
2018-12-03T20:06:25.095Z,129.00
2018-12-03T20:08:55.604Z,128.53
2018-12-03T20:11:26.218Z,134.30
2018-12-03T20:13:56.850Z,149.60
2018-12-03T20:16:27.153Z,141.97
2018-12-03T20:18:57.927Z,151.50
2018-12-03T20:21:28.719Z,144.07
2018-12-03T20:24:08.331Z,145.83
2018-12-03T20:27:02.431Z,153.50
2018-12-03T20:29:57.831Z,147.07
2018-12-03T20:32:40.898Z,151.20
2018-12-03T20:35:36.561Z,148.77
2018-12-03T20:38:42.953Z,150.30
2018-12-03T20:41:23.315Z,149.97
2018-12-03T20:43:56.800Z,150.63
2018-12-03T20:47:04.526Z,151.97
2018-12-03T20:50:10.370Z,158.80
2018-12-03T20:52:40.760Z,152.90
2018-12-03T20:55:20.840Z,154.43
2018-12-03T20:57:52.344Z,153.33
2018-12-03T21:00:23.209Z,155.27
2018-12-03T21:02:59.594Z,153.07
2018-12-03T21:05:30.072Z,154.03
2018-12-03T21:08:00.668Z,151.40
2018-12-03T21:10:31.214Z,150.50
2018-12-03T21:13:01.752Z,154.73
2018-12-03T21:15:32.398Z,154.07
2018-12-03T21:18:02.853Z,153.97
2018-12-03T21:20:56.834Z,157.30
2018-12-03T21:23:27.242Z,157.47
2018-12-03T21:25:57.808Z,154.50
2018-12-03T21:28:28.462Z,155.37
2018-12-03T21:30:58.791Z,155.43
2018-12-03T21:33:29.354Z,154.30
2018-12-03T21:36:00.009Z,157.20
2018-12-03T21:38:30.615Z,159.43
2018-12-03T21:41:01.084Z,161.33
2018-12-03T21:43:31.601Z,161.60
2018-12-03T21:46:01.975Z,161.87
2018-12-03T21:48:32.403Z,160.37
2018-12-03T21:51:03.094Z,158.67
2018-12-03T21:53:33.599Z,158.40
2018-12-03T21:56:04.113Z,159.57
2018-12-03T21:58:34.486Z,157.00
2018-12-03T22:01:04.857Z,157.07
2018-12-03T22:03:35.251Z,155.83
2018-12-03T22:06:05.739Z,157.67
2018-12-03T22:08:36.248Z,157.33
2018-12-03T22:11:06.820Z,156.63
2018-12-03T22:13:40.121Z,154.40
2018-12-03T22:16:10.789Z,153.50
2018-12-03T22:18:41.331Z,151.80
2018-12-03T22:21:11.829Z,150.87
2018-12-03T22:23:42.409Z,147.60
2018-12-03T22:26:13.062Z,147.17
2018-12-03T22:28:43.531Z,148.30
2018-12-03T22:31:14.060Z,143.53
2018-12-03T22:33:44.447Z,143.90
2018-12-03T22:36:15.161Z,143.23
2018-12-03T22:38:45.756Z,143.27
2018-12-03T22:41:16.446Z,142.90
2018-12-03T22:43:46.834Z,142.07
2018-12-03T22:46:17.337Z,140.50
2018-12-03T22:48:47.759Z,142.20
2018-12-03T22:51:18.325Z,140.63
2018-12-03T22:53:48.729Z,138.17
2018-12-03T22:56:19.366Z,140.67
2018-12-03T22:58:49.869Z,136.10
2018-12-03T23:01:26.438Z,135.90
2018-12-03T23:03:56.985Z,135.00
2018-12-03T23:06:27.432Z,137.70
2018-12-03T23:08:57.872Z,133.20
2018-12-03T23:11:28.402Z,135.87
2018-12-03T23:13:58.944Z,132.67
2018-12-03T23:16:29.390Z,131.97
2018-12-03T23:18:59.916Z,129.60
2018-12-03T23:21:30.461Z,130.40
2018-12-03T23:24:00.913Z,129.00
2018-12-03T23:26:31.449Z,133.77
2018-12-03T23:29:01.978Z,127.50
2018-12-03T23:31:32.385Z,127.00
2018-12-03T23:34:02.796Z,125.77
2018-12-03T23:36:33.370Z,122.47
2018-12-03T23:39:03.937Z,125.03
2018-12-03T23:41:34.433Z,124.57
2018-12-03T23:44:04.870Z,122.77
2018-12-03T23:46:35.304Z,121.73
2018-12-03T23:49:05.994Z,120.83
2018-12-03T23:51:36.533Z,123.23
2018-12-03T23:54:06.858Z,121.60
2018-12-03T23:56:37.391Z,114.87
2018-12-03T23:59:07.941Z,117.47
